map of NTD home
NTD - Airport
Location
City:  Oxnard, California, United States
Name:NAS Point Mugu
Old (Alt.):Naval Base Ventura Co.
ICAO:KNTD
IATA:NTD
FAA LID:NTD

Details
Type:Airport (Airfield)
Use:Military
Latitude:34°07'09"N (34.119274)
Longitude:119°07'11"W (-119.119584)
Datum:WGS 1984
Elevation:13 ft (4 m)
Variation:12.10°E (WMM2015v2 magnetic declination)
-0.08° annual change
Runways:2
Longest:11102 × 200 ft (3384 × 61 m), paved

Time
Time Zone:UTC-8 (DST-7)
Local Time:

Weather
METAR:KNTD 041357Z 19012KT 10SM OVC060 13/08 A2981 RMK AO2 SLP095 T01330083 $

Related Locations
Nearby:
Farthest:ZSE: 11490 mi / 18491 km
St-Pierre (St-Pierre de la Réunion) [Pierrefonds], RE

Find:

   beyond  
but within

Other Information
Maps:
NOTAMs:
Links:
Sources:

  
  • flag of United States
  • flag of California
  

Airport Diagram

Airport diagram for NTD

Airport diagram PDF from FAA

Sectional Chart

Flight Planning
at skyvector.com

Satellite Image

Google Maps Satellite view

 

Copyright © 2004-2019 Karl L. Swartz. All rights reserved.
The Great Circle Mapper name and logo are trademarks of the Great Circle Mapper.
All other trademarks mentioned herein belong to their respective owners.
Please see credits for attibutions and further copyright information.

  Follow gcmap on Facebook Follow gcmap on Twitter GCmap on LinkedIn

hCard Microformat

Geo Microformat